Bulk Hong Kong — 3EEW4 — position and weather

sailwx.info

Track history (hours):
 
Tides and Currents Weather Stations Pressure Air Temp Water Temp Dewpoint Dewpoint Depression Visibility Wind Speed Wind Dir Waves Ship Positions

Bulk Hong Kong

Last reported at 2015-May-23 06:33 UTC. Time now 2015-May-24 11:18 UTC.
Position S 20°26' E 057°04'.

Length 289 m; draft 10.6 m.

Type: Cargo ship. MMSI: 371828000.

Date/timePositionNaut miles runAvg speedWind from/ knotsBaromVisibWave heightAir tempDewpointWater temp
2015-May-23 06:33S 20°26' E 057°04'1211.8
2015-May-23 05:33S 20°18' E 057°13'1211.8
2015-May-23 04:33S 20°09' E 057°21'7 7.0
2015-May-23 03:33S 20°08' E 057°29'0 0.0
2015-May-23 02:33S 20°08' E 057°29'0 0.0
2015-May-23 01:33S 20°08' E 057°29'0 0.0
2015-May-23 00:33S 20°08' E 057°29'0 0.0
2015-May-22 23:33S 20°08' E 057°29'0 0.0
2015-May-22 22:33S 20°08' E 057°29'0 0.0
2015-May-22 21:33S 20°08' E 057°29'0 0.1
2015-May-22 20:33S 20°08' E 057°29'0 0.1
2015-May-22 19:33S 20°08' E 057°29'0 0.1
2015-May-22 18:33S 20°08' E 057°29'0 0.0
2015-May-22 17:33S 20°08' E 057°29'0 0.0
2015-May-22 16:33S 20°08' E 057°29'0 0.1
2015-May-22 15:33S 20°08' E 057°29'0 0.1
2015-May-22 14:33S 20°08' E 057°29'0 0.1
2015-May-22 13:33S 20°08' E 057°29'0 0.0
2015-May-22 12:33S 20°08' E 057°29'0 0.1
2015-May-22 11:33S 20°08' E 057°29'0 0.0
2015-May-22 10:33S 20°08' E 057°29'0 0.1
2015-May-22 09:33S 20°08' E 057°29'0 0.0
2015-May-22 08:33S 20°08' E 057°29'0 0.0
2015-May-22 07:33S 20°08' E 057°29'0 0.0
2015-May-22 06:33S 20°08' E 057°29'0 0.0
2015-May-22 05:30S 20°08' E 057°29'0 0.0
2015-May-22 04:33S 20°08' E 057°29'0 0.1
2015-May-22 03:33S 20°08' E 057°29'0 0.2
2015-May-22 02:33S 20°08' E 057°29'0 0.4
2015-May-22 01:33S 20°08' E 057°28'0 0.0
2015-May-22 00:33S 20°08' E 057°28'0 0.0
2015-May-21 23:33S 20°08' E 057°28'0 0.1
2015-May-21 22:33S 20°08' E 057°28'0 0.0
2015-May-21 21:33S 20°08' E 057°28'0 0.0
2015-May-21 20:30S 20°08' E 057°28'0 0.3
2015-May-21 19:33S 20°08' E 057°29'1 0.7
2015-May-21 18:33S 20°07' E 057°28'2 2.0
2015-May-21 17:33S 20°06' E 057°26'5 4.7
2015-May-21 16:33S 20°02' E 057°24'7 6.7
2015-May-21 15:33S 19°56' E 057°28'1212.1
2015-May-21 14:31S 19°46' E 057°35'1111.9
2015-May-21 13:33S 19°41' E 057°46'  
Track history (hours):
 
Tides and Currents Weather Stations Pressure Air Temp Water Temp Dewpoint Dewpoint Depression Visibility Wind Speed Wind Dir Waves Ship Positions

Bulk Hong Kong

Last reported at 2015-May-23 06:33 UTC. Time now 2015-May-24 11:18 UTC.
Position S 20°26' E 057°04'.

Length 289 m; draft 10.6 m.

Type: Cargo ship. MMSI: 371828000.

Date/timePositionNaut miles runAvg speedWind from/ knotsBaromVisibWave heightAir tempDewpointWater temp
2015-May-23 06:33S 20°26' E 057°04'1211.8
2015-May-23 05:33S 20°18' E 057°13'1211.8
2015-May-23 04:33S 20°09' E 057°21'7 7.0
2015-May-23 03:33S 20°08' E 057°29'0 0.0
2015-May-23 02:33S 20°08' E 057°29'0 0.0
2015-May-23 01:33S 20°08' E 057°29'0 0.0
2015-May-23 00:33S 20°08' E 057°29'0 0.0
2015-May-22 23:33S 20°08' E 057°29'0 0.0
2015-May-22 22:33S 20°08' E 057°29'0 0.0
2015-May-22 21:33S 20°08' E 057°29'0 0.1
2015-May-22 20:33S 20°08' E 057°29'0 0.1
2015-May-22 19:33S 20°08' E 057°29'0 0.1
2015-May-22 18:33S 20°08' E 057°29'0 0.0
2015-May-22 17:33S 20°08' E 057°29'0 0.0
2015-May-22 16:33S 20°08' E 057°29'0 0.1
2015-May-22 15:33S 20°08' E 057°29'0 0.1
2015-May-22 14:33S 20°08' E 057°29'0 0.1
2015-May-22 13:33S 20°08' E 057°29'0 0.0
2015-May-22 12:33S 20°08' E 057°29'0 0.1
2015-May-22 11:33S 20°08' E 057°29'0 0.0
2015-May-22 10:33S 20°08' E 057°29'0 0.1
2015-May-22 09:33S 20°08' E 057°29'0 0.0
2015-May-22 08:33S 20°08' E 057°29'0 0.0
2015-May-22 07:33S 20°08' E 057°29'0 0.0
2015-May-22 06:33S 20°08' E 057°29'0 0.0
2015-May-22 05:30S 20°08' E 057°29'0 0.0
2015-May-22 04:33S 20°08' E 057°29'0 0.1
2015-May-22 03:33S 20°08' E 057°29'0 0.2
2015-May-22 02:33S 20°08' E 057°29'0 0.4
2015-May-22 01:33S 20°08' E 057°28'0 0.0
2015-May-22 00:33S 20°08' E 057°28'0 0.0
2015-May-21 23:33S 20°08' E 057°28'0 0.1
2015-May-21 22:33S 20°08' E 057°28'0 0.0
2015-May-21 21:33S 20°08' E 057°28'0 0.0
2015-May-21 20:30S 20°08' E 057°28'0 0.3
2015-May-21 19:33S 20°08' E 057°29'1 0.7
2015-May-21 18:33S 20°07' E 057°28'2 2.0
2015-May-21 17:33S 20°06' E 057°26'5 4.7
2015-May-21 16:33S 20°02' E 057°24'7 6.7
2015-May-21 15:33S 19°56' E 057°28'1212.1
2015-May-21 14:31S 19°46' E 057°35'1111.9
2015-May-21 13:33S 19°41' E 057°46'  

Dump ship's entire track history